createdAt,value
2022-09-12T00:02:12.884Z,100.00
2022-09-12T00:04:43.599Z,100.00
2022-09-12T00:07:15.009Z,100.00
2022-09-12T00:09:44.287Z,100.00
2022-09-12T00:12:15.945Z,100.00
2022-09-12T00:14:46.565Z,100.00
2022-09-12T00:17:17.866Z,100.00
2022-09-12T00:19:46.986Z,100.00
2022-09-12T00:22:28.686Z,100.00
2022-09-12T00:24:59.196Z,100.00
2022-09-12T00:27:30.287Z,100.00
2022-09-12T00:30:00.950Z,100.00
2022-09-12T00:32:31.716Z,100.00
2022-09-12T00:35:03.303Z,100.00
2022-09-12T00:37:35.894Z,100.00
2022-09-12T00:40:07.808Z,100.00
2022-09-12T00:42:38.755Z,100.00
2022-09-12T00:45:25.727Z,100.00
2022-09-12T00:47:59.033Z,100.00
2022-09-12T00:50:33.587Z,100.00
2022-09-12T00:53:08.340Z,100.00
2022-09-12T00:55:45.934Z,100.00
2022-09-12T00:58:23.065Z,100.00
2022-09-12T01:00:56.887Z,100.00
2022-09-12T01:03:30.707Z,100.00
2022-09-12T01:06:08.596Z,100.00
2022-09-12T01:08:41.655Z,100.00
2022-09-12T01:11:15.341Z,100.00
2022-09-12T01:13:48.042Z,100.00
2022-09-12T01:16:22.048Z,100.00
2022-09-12T01:19:05.839Z,100.00
2022-09-12T01:21:57.363Z,100.00
2022-09-12T01:24:36.032Z,100.00
2022-09-12T01:27:38.579Z,100.00
2022-09-12T01:30:23.718Z,100.00
2022-09-12T01:33:17.914Z,100.00
2022-09-12T01:36:09.800Z,100.00
2022-09-12T01:38:48.963Z,100.00
2022-09-12T01:41:30.722Z,100.00
2022-09-12T01:44:13.313Z,100.00
2022-09-12T01:46:49.394Z,100.00
2022-09-12T01:49:26.490Z,100.00
2022-09-12T01:52:09.725Z,100.00
2022-09-12T01:54:48.290Z,100.00
2022-09-12T01:57:25.933Z,100.00
2022-09-12T02:00:07.328Z,100.00
2022-09-12T02:02:53.624Z,100.00
2022-09-12T02:05:30.756Z,100.00
2022-09-12T02:08:08.652Z,100.00
2022-09-12T02:10:47.380Z,100.00
2022-09-12T02:13:24.919Z,100.00
2022-09-12T02:16:00.808Z,100.00
2022-09-12T02:18:35.509Z,100.00
2022-09-12T02:21:10.402Z,100.00
2022-09-12T02:23:46.499Z,100.00
2022-09-12T02:26:24.740Z,100.00
2022-09-12T02:28:58.439Z,100.00
2022-09-12T02:31:36.076Z,100.00
2022-09-12T02:34:26.431Z,100.00
2022-09-12T02:37:08.754Z,100.00
2022-09-12T02:39:45.028Z,100.00
2022-09-12T02:42:16.762Z,100.00
2022-09-12T02:44:48.133Z,100.00
2022-09-12T02:47:27.077Z,100.00
2022-09-12T02:50:25.425Z,100.00
2022-09-12T02:52:59.991Z,100.00
2022-09-12T02:55:34.219Z,100.00
2022-09-12T02:58:07.956Z,100.00
2022-09-12T03:00:47.417Z,100.00
2022-09-12T03:03:43.353Z,100.00
2022-09-12T03:06:22.977Z,100.00
2022-09-12T03:09:13.832Z,100.00
2022-09-12T03:12:10.462Z,100.00
2022-09-12T03:15:01.796Z,100.00
2022-09-12T03:17:46.676Z,100.00
2022-09-12T03:20:23.916Z,100.00
2022-09-12T03:23:02.541Z,100.00
2022-09-12T03:25:36.594Z,100.00
2022-09-12T03:28:11.369Z,100.00
2022-09-12T03:30:55.956Z,100.00
2022-09-12T03:33:29.587Z,100.00
2022-09-12T03:36:00.090Z,100.00
2022-09-12T03:38:30.802Z,100.00
2022-09-12T03:41:01.884Z,100.00
2022-09-12T03:43:32.226Z,100.00
2022-09-12T03:46:02.657Z,100.00
2022-09-12T03:48:33.455Z,100.00
2022-09-12T03:51:05.775Z,100.00
2022-09-12T03:53:36.666Z,100.00
2022-09-12T03:56:11.095Z,100.00
2022-09-12T03:58:44.259Z,100.00
2022-09-12T04:01:17.211Z,100.00
2022-09-12T04:03:50.217Z,100.00
2022-09-12T04:06:22.984Z,100.00
2022-09-12T04:08:55.666Z,100.00
2022-09-12T04:11:26.346Z,100.00
2022-09-12T04:13:57.002Z,100.00
2022-09-12T04:16:27.683Z,100.00
2022-09-12T04:18:58.112Z,100.00
2022-09-12T04:21:31.342Z,100.00
2022-09-12T04:24:04.656Z,100.00
2022-09-12T04:26:35.090Z,100.00
2022-09-12T04:29:05.641Z,100.00
2022-09-12T04:31:36.210Z,100.00
2022-09-12T04:34:07.008Z,100.00
2022-09-12T04:36:40.360Z,100.00
2022-09-12T04:39:11.552Z,100.00
2022-09-12T04:41:41.881Z,100.00
2022-09-12T04:44:15.354Z,100.00
2022-09-12T04:46:47.695Z,100.00
2022-09-12T04:49:19.432Z,100.00
2022-09-12T04:51:50.304Z,100.00
2022-09-12T04:54:22.195Z,100.00
2022-09-12T04:56:55.983Z,100.00
2022-09-12T04:59:26.539Z,100.00
2022-09-12T05:01:57.047Z,100.00
2022-09-12T05:04:27.671Z,100.00
2022-09-12T05:06:58.614Z,100.00
2022-09-12T05:09:29.431Z,100.00
2022-09-12T05:12:05.336Z,100.00
2022-09-12T05:14:36.577Z,100.00
2022-09-12T05:17:07.800Z,100.00
2022-09-12T05:19:38.699Z,100.00
2022-09-12T05:22:29.322Z,100.00
2022-09-12T05:24:59.878Z,100.00
2022-09-12T05:27:32.890Z,100.00
2022-09-12T05:30:06.619Z,100.00
2022-09-12T05:32:39.989Z,100.00
2022-09-12T05:35:12.253Z,100.00
2022-09-12T05:37:43.734Z,100.00
2022-09-12T05:40:24.359Z,100.00
2022-09-12T05:42:55.049Z,100.00
2022-09-12T05:45:27.041Z,100.00
2022-09-12T05:47:57.440Z,100.00
2022-09-12T05:50:28.118Z,100.00
2022-09-12T05:52:59.259Z,100.00
2022-09-12T05:55:33.202Z,100.00
2022-09-12T05:58:07.426Z,100.00
2022-09-12T06:00:36.342Z,100.00
2022-09-12T06:03:06.837Z,100.00
2022-09-12T06:05:38.200Z,100.00
2022-09-12T06:08:11.266Z,100.00
2022-09-12T06:10:41.660Z,100.00
2022-09-12T06:13:12.114Z,100.00
2022-09-12T06:15:42.669Z,100.00
2022-09-12T06:18:13.223Z,100.00
2022-09-12T06:20:44.622Z,100.00
2022-09-12T06:23:15.185Z,100.00
2022-09-12T06:25:50.453Z,100.00
2022-09-12T06:28:21.022Z,100.00
2022-09-12T06:30:51.755Z,100.00
2022-09-12T06:33:22.618Z,100.00
2022-09-12T06:35:55.396Z,100.00
2022-09-12T06:38:26.261Z,100.00
2022-09-12T06:40:57.363Z,100.00
2022-09-12T06:43:29.284Z,100.00
2022-09-12T06:46:00.496Z,100.00
2022-09-12T06:48:31.279Z,100.00
2022-09-12T06:51:03.352Z,100.00
2022-09-12T06:53:36.846Z,100.00
2022-09-12T06:56:10.341Z,100.00
2022-09-12T06:58:41.744Z,100.00
2022-09-12T07:01:14.377Z,100.00
2022-09-12T07:03:48.851Z,100.00
2022-09-12T07:06:21.456Z,100.00
2022-09-12T07:08:54.548Z,100.00
2022-09-12T07:11:27.330Z,100.00
2022-09-12T07:13:59.967Z,100.00
2022-09-12T07:16:30.715Z,100.00
2022-09-12T07:19:03.413Z,98.92
2022-09-12T07:21:36.552Z,98.09
2022-09-12T07:24:08.748Z,96.94
2022-09-12T07:26:42.002Z,96.34
2022-09-12T07:32:09.319Z,95.87
2022-09-12T07:34:40.035Z,93.56
2022-09-12T07:37:10.548Z,93.64
2022-09-12T07:39:40.968Z,93.33
2022-09-12T07:42:12.540Z,93.19
2022-09-12T07:44:44.420Z,92.41
2022-09-12T07:47:14.947Z,91.04
2022-09-12T07:49:45.371Z,91.78
2022-09-12T07:52:15.977Z,91.00
2022-09-12T07:54:46.383Z,91.09
2022-09-12T07:57:16.706Z,90.71
2022-09-12T07:59:52.940Z,90.05
2022-09-12T08:02:24.022Z,89.15
2022-09-12T08:04:54.641Z,88.62
2022-09-12T08:07:25.183Z,88.41
2022-09-12T08:09:55.742Z,86.91
2022-09-12T08:12:26.538Z,86.23
2022-09-12T08:14:57.392Z,87.04
2022-09-12T08:17:28.830Z,84.07
2022-09-12T08:19:59.545Z,82.82
2022-09-12T08:22:31.347Z,83.89
2022-09-12T08:25:01.978Z,83.04
2022-09-12T08:27:32.548Z,83.02
2022-09-12T08:30:03.203Z,83.09
2022-09-12T08:32:35.429Z,83.80
2022-09-12T08:35:06.498Z,83.41
2022-09-12T08:37:37.267Z,82.75
2022-09-12T08:40:10.234Z,81.39
2022-09-12T08:42:54.651Z,79.87
2022-09-12T08:45:33.165Z,81.23
2022-09-12T08:48:07.117Z,81.54
2022-09-12T08:50:39.275Z,80.16
2022-09-12T08:53:15.309Z,79.30
2022-09-12T08:55:51.386Z,77.84
2022-09-12T08:58:24.047Z,76.64
2022-09-12T09:01:04.659Z,77.56
2022-09-12T09:04:11.407Z,77.82
2022-09-12T09:06:59.446Z,76.23
2022-09-12T09:09:45.499Z,76.51
2022-09-12T09:12:29.483Z,74.14
2022-09-12T09:15:28.536Z,73.21
2022-09-12T09:18:04.208Z,74.03
2022-09-12T09:20:42.288Z,73.18
2022-09-12T09:23:18.094Z,71.76
2022-09-12T09:25:57.769Z,71.20
2022-09-12T09:28:42.629Z,69.71
2022-09-12T09:31:18.171Z,69.81
2022-09-12T09:33:51.797Z,68.97
2022-09-12T09:36:29.919Z,68.77
2022-09-12T09:39:05.916Z,67.25
2022-09-12T09:41:50.411Z,67.78
2022-09-12T09:44:21.513Z,67.95
2022-09-12T09:46:52.136Z,68.13
2022-09-12T09:49:24.327Z,67.33
2022-09-12T09:51:58.819Z,67.00
2022-09-12T09:54:36.117Z,66.84
2022-09-12T09:57:26.912Z,67.18
2022-09-12T09:59:57.340Z,67.29
2022-09-12T10:02:28.277Z,67.27
2022-09-12T10:04:59.776Z,66.96
2022-09-12T10:07:30.218Z,66.46
2022-09-12T10:10:18.777Z,63.46
2022-09-12T10:12:49.787Z,63.31
2022-09-12T10:15:20.303Z,64.33
2022-09-12T10:17:52.736Z,63.78
2022-09-12T10:20:39.679Z,63.18
2022-09-12T10:23:30.537Z,63.08
2022-09-12T10:26:03.796Z,63.08
2022-09-12T10:28:39.355Z,63.12
2022-09-12T10:31:12.681Z,62.65
2022-09-12T10:33:52.655Z,60.21
2022-09-12T10:36:24.606Z,61.59
2022-09-12T10:39:02.583Z,60.66
2022-09-12T10:41:40.933Z,57.20
2022-09-12T10:44:18.153Z,58.71
2022-09-12T10:46:48.556Z,57.90
2022-09-12T10:49:28.098Z,58.45
2022-09-12T10:52:17.216Z,56.81
2022-09-12T10:54:47.749Z,55.81
2022-09-12T10:58:02.832Z,54.94
2022-09-12T11:00:47.651Z,53.25
2022-09-12T11:03:32.095Z,52.80
2022-09-12T11:06:03.033Z,51.25
2022-09-12T11:08:49.941Z,51.62
2022-09-12T11:11:38.140Z,50.30
2022-09-12T11:14:25.159Z,49.73
2022-09-12T11:17:04.858Z,48.74
2022-09-12T11:19:53.902Z,49.54
2022-09-12T11:22:47.077Z,49.00
2022-09-12T11:25:29.801Z,46.02
2022-09-12T11:28:17.517Z,45.28
2022-09-12T11:30:57.062Z,43.68
2022-09-12T11:33:42.854Z,42.20
2022-09-12T11:36:28.362Z,43.12
2022-09-12T11:39:10.062Z,41.43
2022-09-12T11:41:43.517Z,41.30
2022-09-12T11:44:20.451Z,41.36
2022-09-12T11:46:52.269Z,40.52
2022-09-12T11:49:34.790Z,41.27
2022-09-12T11:52:12.166Z,39.97
2022-09-12T11:54:53.366Z,39.61
2022-09-12T11:57:31.976Z,38.85
2022-09-12T12:00:06.081Z,38.70
2022-09-12T12:02:42.819Z,40.07
2022-09-12T12:05:24.792Z,40.11
2022-09-12T12:07:57.346Z,36.86
2022-09-12T12:10:34.724Z,38.14
2022-09-12T12:13:13.353Z,38.43
2022-09-12T12:15:49.507Z,36.23
2022-09-12T12:18:23.925Z,36.93
2022-09-12T12:20:56.188Z,37.18
2022-09-12T12:23:30.138Z,36.14
2022-09-12T12:26:01.930Z,36.44
2022-09-12T12:29:00.852Z,34.74
2022-09-12T12:31:31.391Z,35.75
2022-09-12T12:34:23.931Z,35.49
2022-09-12T12:36:54.450Z,34.79
2022-09-12T12:39:48.003Z,34.79
2022-09-12T12:43:04.798Z,33.84
2022-09-12T12:45:59.643Z,33.44
2022-09-12T12:48:35.328Z,33.82
2022-09-12T12:51:31.696Z,32.09
2022-09-12T12:54:04.189Z,33.02
2022-09-12T12:56:43.391Z,31.12
2022-09-12T12:59:22.384Z,29.82
2022-09-12T13:01:57.267Z,29.85
2022-09-12T13:04:32.330Z,30.89
2022-09-12T13:07:08.738Z,30.48
2022-09-12T13:09:48.560Z,30.84
2022-09-12T13:12:25.775Z,30.14
2022-09-12T13:15:00.909Z,30.89
2022-09-12T13:17:37.024Z,30.46
2022-09-12T13:20:34.545Z,29.67
2022-09-12T13:23:04.991Z,28.25
2022-09-12T13:25:37.490Z,28.48
2022-09-12T13:28:19.374Z,28.22
2022-09-12T13:30:59.802Z,28.43
2022-09-12T13:33:36.213Z,28.03
2022-09-12T13:36:40.955Z,28.76
2022-09-12T13:39:18.837Z,28.36
2022-09-12T13:42:21.045Z,28.64
2022-09-12T13:44:56.120Z,28.65
2022-09-12T13:47:31.875Z,29.02
2022-09-12T13:50:05.290Z,28.64
2022-09-12T13:52:39.075Z,28.00
2022-09-12T13:55:19.636Z,27.88
2022-09-12T13:57:59.973Z,28.36
2022-09-12T14:00:31.781Z,28.48
2022-09-12T14:03:20.305Z,27.29
2022-09-12T14:05:58.353Z,27.82
2022-09-12T14:08:30.657Z,26.31
2022-09-12T14:11:05.000Z,27.37
2022-09-12T14:13:36.870Z,27.25
2022-09-12T14:16:17.600Z,28.00
2022-09-12T14:18:51.834Z,27.29
2022-09-12T14:21:35.073Z,27.43
2022-09-12T14:24:08.768Z,27.75
2022-09-12T14:26:44.193Z,27.54
2022-09-12T14:29:18.839Z,26.77
2022-09-12T14:32:05.431Z,27.40
2022-09-12T14:34:36.014Z,28.21
2022-09-12T14:37:08.802Z,28.65
2022-09-12T14:39:44.604Z,28.22
2022-09-12T14:42:18.917Z,28.69
2022-09-12T14:44:58.197Z,28.64
2022-09-12T14:47:37.790Z,27.77
2022-09-12T14:50:19.200Z,26.68
2022-09-12T14:53:05.320Z,27.60
2022-09-12T14:55:43.832Z,26.86
2022-09-12T14:58:26.227Z,27.18
2022-09-12T15:01:00.000Z,26.83
2022-09-12T15:03:33.852Z,27.99
2022-09-12T15:06:08.010Z,28.24
2022-09-12T15:08:38.739Z,29.01
2022-09-12T15:11:10.259Z,27.82
2022-09-12T15:13:43.453Z,28.09
2022-09-12T15:16:14.844Z,27.68
2022-09-12T15:18:46.046Z,28.08
2022-09-12T15:21:20.287Z,26.31
2022-09-12T15:23:52.265Z,25.84
2022-09-12T15:26:24.411Z,25.95
2022-09-12T15:28:55.037Z,26.36
2022-09-12T15:31:28.412Z,26.40
2022-09-12T15:34:00.866Z,26.63
2022-09-12T15:36:32.021Z,26.79
2022-09-12T15:39:02.967Z,26.77
2022-09-12T15:41:36.875Z,26.63
2022-09-12T15:44:09.040Z,26.50
2022-09-12T15:46:40.336Z,27.25
2022-09-12T15:49:10.729Z,28.03
2022-09-12T15:51:41.293Z,28.19
2022-09-12T15:54:14.852Z,28.77
2022-09-12T15:56:45.485Z,29.02
2022-09-12T15:59:14.576Z,29.68
2022-09-12T16:01:45.073Z,30.00
2022-09-12T16:04:24.307Z,31.31
2022-09-12T16:06:55.999Z,31.57
2022-09-12T16:09:26.820Z,32.40
2022-09-12T16:11:55.686Z,32.69
2022-09-12T16:14:26.459Z,32.95
2022-09-12T16:16:57.848Z,33.29
2022-09-12T16:19:28.598Z,33.06
2022-09-12T16:21:57.700Z,34.70
2022-09-12T16:24:28.264Z,35.50
2022-09-12T16:27:01.144Z,35.82
2022-09-12T16:29:33.049Z,36.39
2022-09-12T16:32:03.805Z,37.61
2022-09-12T16:34:34.225Z,37.25
2022-09-12T16:37:04.639Z,38.20
2022-09-12T16:39:35.270Z,38.26
2022-09-12T16:42:06.269Z,38.92
2022-09-12T16:44:35.286Z,39.01
2022-09-12T16:47:06.583Z,39.85
2022-09-12T16:49:37.094Z,41.26
2022-09-12T16:52:08.173Z,41.86
2022-09-12T16:54:38.782Z,42.38
2022-09-12T16:57:09.514Z,42.81
2022-09-12T16:59:40.028Z,43.58
2022-09-12T17:02:14.320Z,43.89
2022-09-12T17:04:45.292Z,44.61
2022-09-12T17:07:15.810Z,45.47
2022-09-12T17:09:48.032Z,46.24
2022-09-12T17:12:18.719Z,46.80
2022-09-12T17:14:49.138Z,47.00
2022-09-12T17:17:19.513Z,47.98
2022-09-12T17:19:50.001Z,48.87
2022-09-12T17:22:20.799Z,49.73
2022-09-12T17:24:51.500Z,50.89
2022-09-12T17:27:21.987Z,51.79
2022-09-12T17:29:52.514Z,52.35
2022-09-12T17:32:23.177Z,52.72
2022-09-12T17:34:53.628Z,53.23
2022-09-12T17:37:24.360Z,54.20
2022-09-12T17:39:55.278Z,54.87
2022-09-12T17:42:26.158Z,55.44
2022-09-12T17:44:58.376Z,55.92
2022-09-12T17:47:29.006Z,56.37
2022-09-12T17:50:27.418Z,56.73
2022-09-12T17:52:49.546Z,57.40
2022-09-12T17:55:20.493Z,57.81
2022-09-12T17:57:51.299Z,58.52
2022-09-12T18:00:42.381Z,59.00
2022-09-12T18:03:13.053Z,59.70
2022-09-12T18:05:49.740Z,60.27
2022-09-12T18:08:20.535Z,60.61
2022-09-12T18:10:51.837Z,61.03
2022-09-12T18:13:22.411Z,61.47
2022-09-12T18:15:52.957Z,61.77
2022-09-12T18:18:23.636Z,62.11
2022-09-12T18:20:58.559Z,62.34
2022-09-12T18:23:31.907Z,62.81
2022-09-12T18:26:07.011Z,63.35
2022-09-12T18:28:39.854Z,63.57
2022-09-12T18:31:15.500Z,64.04
2022-09-12T18:33:46.792Z,64.48
2022-09-12T18:36:16.351Z,65.04
2022-09-12T18:38:47.907Z,65.37
2022-09-12T18:41:20.212Z,65.69
2022-09-12T18:43:54.739Z,65.99
2022-09-12T18:46:28.921Z,66.33
2022-09-12T18:49:02.096Z,66.75
2022-09-12T18:51:36.573Z,66.61
2022-09-12T18:54:13.205Z,66.68
2022-09-12T18:56:45.659Z,67.06
2022-09-12T18:59:16.589Z,67.26
2022-09-12T19:01:48.687Z,67.13
2022-09-12T19:04:19.322Z,67.69
2022-09-12T19:06:50.798Z,67.92
2022-09-12T19:09:23.838Z,68.34
2022-09-12T19:11:55.277Z,68.58
2022-09-12T19:14:46.173Z,68.92
2022-09-12T19:17:18.161Z,69.55
2022-09-12T19:19:49.093Z,69.64
2022-09-12T19:22:26.568Z,69.91
2022-09-12T19:24:57.100Z,69.74
2022-09-12T19:27:27.790Z,69.79
2022-09-12T19:29:58.269Z,69.95
2022-09-12T19:32:28.658Z,70.09
2022-09-12T19:34:59.547Z,70.31
2022-09-12T19:37:31.995Z,70.50
2022-09-12T19:40:03.272Z,70.34
2022-09-12T19:42:32.481Z,70.67
2022-09-12T19:45:03.089Z,70.74
2022-09-12T19:47:34.272Z,71.32
2022-09-12T19:50:05.278Z,71.76
2022-09-12T19:52:36.026Z,71.74
2022-09-12T19:55:07.498Z,72.05
2022-09-12T19:57:38.309Z,72.36
2022-09-12T20:00:10.730Z,72.52
2022-09-12T20:02:42.161Z,72.90
2022-09-12T20:05:12.917Z,72.88
2022-09-12T20:07:43.456Z,73.20
2022-09-12T20:10:14.210Z,73.39
2022-09-12T20:12:44.730Z,73.43
2022-09-12T20:15:17.796Z,73.71
2022-09-12T20:17:48.437Z,74.06
2022-09-12T20:20:19.104Z,74.28
2022-09-12T20:22:52.766Z,74.60
2022-09-12T20:25:23.310Z,74.34
2022-09-12T20:27:58.113Z,74.81
2022-09-12T20:30:30.774Z,74.84
2022-09-12T20:33:01.290Z,74.98
2022-09-12T20:35:31.946Z,75.08
2022-09-12T20:38:02.429Z,75.47
2022-09-12T20:40:40.099Z,76.13
2022-09-12T20:43:10.706Z,76.59
2022-09-12T20:45:44.393Z,76.47
2022-09-12T20:48:14.929Z,76.60
2022-09-12T20:50:45.486Z,77.42
2022-09-12T20:53:17.039Z,77.07
2022-09-12T20:55:53.620Z,77.11
2022-09-12T20:58:25.109Z,77.04
2022-09-12T21:00:56.482Z,77.04
2022-09-12T21:03:27.101Z,77.27
2022-09-12T21:05:57.567Z,77.07
2022-09-12T21:08:28.071Z,77.14
2022-09-12T21:11:00.902Z,76.73
2022-09-12T21:13:34.775Z,76.96
2022-09-12T21:16:07.699Z,76.99
2022-09-12T21:18:38.956Z,77.12
2022-09-12T21:21:10.733Z,77.31
2022-09-12T21:23:41.813Z,77.54
2022-09-12T21:26:13.037Z,77.71
2022-09-12T21:28:43.718Z,77.94
2022-09-12T21:31:14.341Z,77.94
2022-09-12T21:33:44.885Z,77.72
2022-09-12T21:36:15.405Z,77.93
2022-09-12T21:38:46.096Z,77.98
2022-09-12T21:41:18.394Z,78.13
2022-09-12T21:43:48.960Z,78.08
2022-09-12T21:46:30.808Z,77.83
2022-09-12T21:49:02.232Z,77.94
2022-09-12T21:51:33.009Z,77.60
2022-09-12T21:54:03.440Z,77.58
2022-09-12T21:56:33.867Z,77.64
2022-09-12T21:59:04.490Z,77.53
2022-09-12T22:01:37.202Z,77.46
2022-09-12T22:04:07.648Z,77.41
2022-09-12T22:06:38.643Z,77.20
2022-09-12T22:09:09.210Z,77.33
2022-09-12T22:11:39.760Z,77.02
2022-09-12T22:14:10.253Z,77.18
2022-09-12T22:16:44.045Z,77.51
2022-09-12T22:19:15.139Z,77.30
2022-09-12T22:21:59.527Z,77.40
2022-09-12T22:24:30.150Z,77.62
2022-09-12T22:27:03.728Z,77.51
2022-09-12T22:29:34.580Z,77.42
2022-09-12T22:32:05.807Z,77.67
2022-09-12T22:34:35.008Z,77.80
2022-09-12T22:37:05.645Z,77.94
2022-09-12T22:39:36.186Z,78.17
2022-09-12T22:42:07.738Z,78.17
2022-09-12T22:44:38.191Z,78.40
2022-09-12T22:47:08.594Z,78.14
2022-09-12T22:49:39.010Z,78.46
2022-09-12T22:52:09.587Z,78.16
2022-09-12T22:54:40.075Z,78.17
2022-09-12T22:57:20.575Z,78.32
2022-09-12T22:59:51.991Z,78.32
2022-09-12T23:02:20.973Z,78.58
2022-09-12T23:04:52.317Z,78.41
2022-09-12T23:07:21.307Z,78.36
2022-09-12T23:09:51.654Z,79.07
2022-09-12T23:12:22.277Z,79.05
2022-09-12T23:14:52.889Z,79.15
2022-09-12T23:17:23.393Z,79.09
2022-09-12T23:19:53.810Z,79.45
2022-09-12T23:22:36.424Z,79.61
2022-09-12T23:25:08.092Z,79.43
2022-09-12T23:27:40.047Z,79.52
2022-09-12T23:30:12.200Z,79.50
2022-09-12T23:32:42.582Z,79.16
2022-09-12T23:35:13.249Z,79.41
2022-09-12T23:37:43.821Z,79.31
2022-09-12T23:40:15.148Z,79.39
2022-09-12T23:42:57.092Z,79.40
2022-09-12T23:45:27.623Z,79.06
2022-09-12T23:47:58.348Z,79.32
2022-09-12T23:50:28.916Z,79.77
2022-09-12T23:52:59.409Z,79.79
2022-09-12T23:55:29.946Z,79.87
2022-09-12T23:58:00.329Z,80.14
